»·PEaware :: N921VN KRYN-KSAD

N921VN :: KRYN-KSAD

FLIGHT INFORMATION

Flight Status: Arrived
Operator: Privately registered:
United States
More flights under this callsign
Pilot: Kevin M. (7)
Aircraft: CESSNA 172 SKYHAWK
(C172)
More flights by this aircraft type
Origin: KRYN Ryan
United States
Destination: KSAD Safford Regl
United States
More flights between these airports :: More routes between these airports
Route:
File this flight plan on PilotEdge
Remarks: alphabet challenge
Altitude:
(Current/Filed)
9,500ft
Speed:
(Current/Filed)
140kts
Departed: 17-Nov-20 08:07 AM
Arrived: 17-Nov-20 09:00 AM
Distance/Time
Traveled:
89nm/0:53
Distance/Time
To Go:
Arrived

Flight Plot

Page will automatically refresh every two minutes.

Flight plan parsing failed; only flown route is shown


Map Options




Map Legend


Flown Route
Filed Route
Departure Airport
Arrival Airport
Navaid (VOR, NDB)
Fix

Horizontal Profiles

Position Reports

Time Latitude Longitude Heading Altitude Ground
Speed
17-Nov-20 08:06 32.146795 -111.178417 257 2777ft 111kts
17-Nov-20 08:07 32.141291 -111.175427 69 2407ft 48kts
17-Nov-20 08:08 32.144970 -111.163668 71 2463ft 83kts
17-Nov-20 08:09 32.152670 -111.138142 74 3078ft 86kts
17-Nov-20 08:10 32.159709 -111.110776 75 3664ft 84kts
17-Nov-20 08:11 32.164855 -111.083873 80 4219ft 87kts
17-Nov-20 08:12 32.169484 -111.055824 80 4725ft 86kts
17-Nov-20 08:13 32.174413 -111.028706 80 5227ft 82kts
17-Nov-20 08:14 32.178616 -111.003253 80 5724ft 75kts
17-Nov-20 08:15 32.182385 -110.981138 80 6176ft 65kts
17-Nov-20 08:16 32.186299 -110.958502 80 6621ft 76kts
17-Nov-20 08:17 32.190847 -110.931713 80 7035ft 89kts
17-Nov-20 08:18 32.195792 -110.901649 80 7422ft 95kts
17-Nov-20 08:18 32.199947 -110.875932 80 7745ft 95kts
17-Nov-20 08:20 32.202745 -110.858565 80 7967ft 95kts
17-Nov-20 08:20 32.213383 -110.835789 60 8246ft 99kts
17-Nov-20 08:22 32.231491 -110.801193 60 8366ft 109kts
17-Nov-20 08:22 32.244817 -110.775469 60 8445ft 110kts
17-Nov-20 08:24 32.263463 -110.739371 60 8557ft 110kts
17-Nov-20 08:24 32.276748 -110.713670 60 8640ft 109kts
17-Nov-20 08:25 32.292721 -110.682932 61 8730ft 109kts
17-Nov-20 08:26 32.308440 -110.652748 60 8835ft 107kts
17-Nov-20 08:27 32.324119 -110.622496 60 8942ft 108kts
17-Nov-20 08:28 32.340045 -110.591892 60 9043ft 108kts
17-Nov-20 08:29 32.355918 -110.561450 60 9142ft 108kts
17-Nov-20 08:30 32.371866 -110.531149 60 9245ft 108kts
17-Nov-20 08:31 32.387972 -110.500703 60 9348ft 109kts
17-Nov-20 08:32 32.404133 -110.470314 60 9444ft 108kts
17-Nov-20 08:33 32.420279 -110.440091 60 9497ft 110kts
17-Nov-20 08:34 32.436715 -110.409131 60 9501ft 111kts
17-Nov-20 08:35 32.453304 -110.377856 60 9497ft 111kts
17-Nov-20 08:36 32.469835 -110.346787 60 9498ft 111kts
17-Nov-20 08:37 32.486654 -110.315353 59 9503ft 112kts
17-Nov-20 08:38 32.503344 -110.284180 61 9485ft 110kts
17-Nov-20 08:39 32.520150 -110.252711 60 9489ft 114kts
17-Nov-20 08:40 32.537082 -110.220855 60 9466ft 113kts
17-Nov-20 08:41 32.554146 -110.189676 46 9459ft 114kts
17-Nov-20 08:42 32.576096 -110.162041 50 9462ft 115kts
17-Nov-20 08:43 32.597835 -110.134317 50 9460ft 114kts
17-Nov-20 08:44 32.619661 -110.106669 50 9453ft 114kts
17-Nov-20 08:45 32.641289 -110.079316 48 9448ft 113kts
17-Nov-20 08:46 32.666869 -110.056564 40 9454ft 115kts
17-Nov-20 08:47 32.692704 -110.033979 40 9436ft 115kts
17-Nov-20 08:48 32.717979 -110.010287 46 9481ft 115kts
17-Nov-20 08:49 32.737444 -109.978302 59 9032ft 132kts
17-Nov-20 08:50 32.752302 -109.938565 70 8517ft 132kts
17-Nov-20 08:51 32.766028 -109.898014 62 7990ft 131kts
17-Nov-20 08:52 32.778963 -109.857539 78 7482ft 128kts
17-Nov-20 08:53 32.792160 -109.818595 61 7122ft 129kts
17-Nov-20 08:54 32.810715 -109.781688 61 6608ft 132kts
17-Nov-20 08:55 32.829010 -109.742937 63 5894ft 134kts
17-Nov-20 08:56 32.844810 -109.702429 62 5091ft 136kts
17-Nov-20 08:57 32.863804 -109.664820 58 3949ft 120kts
17-Nov-20 08:58 32.856554 -109.639643 134 3171ft 66kts
17-Nov-20 08:59 32.851572 -109.636020 238 3171ft 0kts
17-Nov-20 09:00 32.851524 -109.636075 220 3171ft 0kts

Navigation Log

Ident Type
Flight plan parsing failed, navigation log unavailable